Time;durP1;ratioP1;P1;durP2;ratioP2;P2;SDS_P1;SDS_P2;PMS_P1;PMS_P2;Temp;Humidity;BMP_temperature;BMP_pressure;BME280_temperature;BME280_humidity;BME280_pressure;Samples;Min_cycle;Max_cycle;Signal;HPM_P1;HPM_P2
2020/12/15 00:00:17;;;;;;;115.32;51.33;;;;;;;-0.83;100.00;99299.56;2080001;28;20236;-81
2020/12/15 00:01:21;;;;;;;116.47;51.20;;;;;;;-0.83;100.00;99302.19;2080356;28;20306;-81
2020/12/15 00:02:22;;;;;;;108.80;50.22;;;;;;;-0.93;100.00;99291.41;2073442;28;20232;-79
2020/12/15 00:03:23;;;;;;;113.37;51.60;;;;;;;-0.95;100.00;99299.50;2071954;28;20232;-80
2020/12/15 00:04:26;;;;;;;126.13;50.75;;;;;;;-0.96;100.00;99297.88;2071838;28;20228;-81
2020/12/15 00:05:27;;;;;;;133.35;53.28;;;;;;;-0.85;100.00;99304.25;2063852;28;20229;-81
2020/12/15 00:06:33;;;;;;;120.35;51.67;;;;;;;-0.99;100.00;99293.06;2072100;28;20587;-80
2020/12/15 00:07:34;;;;;;;122.10;52.15;;;;;;;-1.03;100.00;99291.09;2072644;28;20703;-81
2020/12/15 00:08:34;;;;;;;120.70;52.13;;;;;;;-1.02;100.00;99297.94;2071875;28;20706;-81
2020/12/15 00:09:36;;;;;;;118.13;51.10;;;;;;;-1.10;100.00;99296.41;2071988;28;20646;-81
2020/12/15 00:10:37;;;;;;;109.82;48.72;;;;;;;-0.99;100.00;99298.31;2078392;28;20227;-78
2020/12/15 00:11:38;;;;;;;111.75;48.20;;;;;;;-0.96;100.00;99297.88;2080921;28;20588;-81
2020/12/15 00:12:41;;;;;;;120.05;49.97;;;;;;;-0.93;100.00;99307.94;2080134;28;20586;-81
2020/12/15 00:13:43;;;;;;;119.25;50.95;;;;;;;-0.90;100.00;99304.06;2080185;28;20310;-80
2020/12/15 00:14:44;;;;;;;117.25;48.72;;;;;;;-0.88;100.00;99304.66;2080948;28;20578;-83
2020/12/15 00:15:45;;;;;;;120.23;51.13;;;;;;;-0.92;100.00;99298.25;2080810;28;20245;-81
2020/12/15 00:16:46;;;;;;;117.18;50.50;;;;;;;-1.05;100.00;99286.06;2080684;28;20235;-83
2020/12/15 00:17:47;;;;;;;111.20;47.80;;;;;;;-0.87;100.00;99312.31;2080747;28;20220;-80
2020/12/15 00:18:48;;;;;;;112.47;48.83;;;;;;;-0.86;100.00;99313.13;2080583;28;20219;-82
2020/12/15 00:19:50;;;;;;;108.53;50.17;;;;;;;-0.93;100.00;99317.59;2080671;28;20281;-82
2020/12/15 00:20:50;;;;;;;112.93;48.63;;;;;;;-1.05;100.00;99308.81;2080689;28;20284;-82
2020/12/15 00:21:53;;;;;;;111.77;48.67;;;;;;;-1.03;100.00;99318.09;2096449;28;20276;-82
2020/12/15 00:22:54;;;;;;;113.57;49.58;;;;;;;-1.08;100.00;99312.69;2095615;28;20296;-82
2020/12/15 00:23:55;;;;;;;116.93;50.67;;;;;;;-1.15;100.00;99312.72;2079830;28;20282;-82
2020/12/15 00:24:56;;;;;;;125.43;50.40;;;;;;;-1.07;100.00;99316.91;2080277;28;20704;-82
2020/12/15 00:25:57;;;;;;;115.13;49.73;;;;;;;-1.13;100.00;99315.13;2096348;28;20680;-80
2020/12/15 00:26:59;;;;;;;123.75;50.88;;;;;;;-1.14;100.00;99316.94;2088306;28;20223;-82
2020/12/15 00:28:01;;;;;;;124.68;52.88;;;;;;;-1.34;100.00;99287.50;2071707;28;20587;-82
2020/12/15 00:29:01;;;;;;;120.57;51.38;;;;;;;-1.12;100.00;99310.72;2071757;28;20258;-82
2020/12/15 00:30:03;;;;;;;127.00;50.03;;;;;;;-1.13;100.00;99302.03;2088308;28;20688;-82
2020/12/15 00:31:04;;;;;;;102.18;46.67;;;;;;;-1.14;100.00;99300.44;2087882;28;20221;-80
2020/12/15 00:32:08;;;;;;;128.60;51.40;;;;;;;-1.12;100.00;99308.09;2071733;28;20674;-82
2020/12/15 00:33:08;;;;;;;114.85;48.67;;;;;;;-1.10;100.00;99313.91;2073196;28;20232;-80
2020/12/15 00:34:10;;;;;;;121.33;49.63;;;;;;;-1.08;100.00;99317.13;2072419;28;20224;-80
2020/12/15 00:35:11;;;;;;;135.30;53.22;;;;;;;-1.15;100.00;99307.50;2072395;28;20698;-80
2020/12/15 00:36:17;;;;;;;126.70;51.17;;;;;;;-1.09;100.00;99313.69;2071371;28;20258;-80
2020/12/15 00:37:18;;;;;;;124.38;50.83;;;;;;;-1.17;100.00;99304.28;2071521;28;20235;-80
2020/12/15 00:38:19;;;;;;;115.37;47.83;;;;;;;-1.14;100.00;99316.94;2071930;28;20239;-80
2020/12/15 00:39:20;;;;;;;118.60;50.65;;;;;;;-1.06;100.00;99321.13;2079788;28;20677;-82
2020/12/15 00:40:22;;;;;;;128.37;50.30;;;;;;;-1.08;100.00;99311.88;2088147;28;20674;-80
2020/12/15 00:41:23;;;;;;;121.43;51.45;;;;;;;-1.01;100.00;99323.91;2093958;28;20249;-79
2020/12/15 00:42:24;;;;;;;127.23;50.73;;;;;;;-1.07;100.00;99316.09;2087872;28;20226;-80
2020/12/15 00:43:25;;;;;;;133.95;50.47;;;;;;;-1.07;100.00;99321.34;2087367;28;20469;-80
2020/12/15 00:44:26;;;;;;;138.40;53.77;;;;;;;-1.24;100.00;99311.38;2087800;28;20250;-80
2020/12/15 00:45:27;;;;;;;133.30;52.00;;;;;;;-1.19;100.00;99319.41;2079948;28;20230;-80
2020/12/15 00:46:28;;;;;;;126.47;52.00;;;;;;;-1.14;100.00;99319.56;2080462;28;20662;-80
2020/12/15 00:47:29;;;;;;;123.05;51.58;;;;;;;-1.13;100.00;99315.13;2079919;28;20231;-80
2020/12/15 00:48:30;;;;;;;145.53;53.97;;;;;;;-1.18;100.00;99313.16;2079818;28;20231;-80
2020/12/15 00:49:31;;;;;;;139.15;54.05;;;;;;;-1.15;100.00;99310.09;2096082;28;20213;-80
2020/12/15 00:50:33;;;;;;;134.90;50.60;;;;;;;-1.13;100.00;99315.13;2087937;28;20257;-81
2020/12/15 00:51:34;;;;;;;134.07;52.83;;;;;;;-1.10;100.00;99314.72;2087856;28;20231;-80
2020/12/15 00:52:35;;;;;;;132.47;54.27;;;;;;;-1.15;100.00;99310.09;2087750;28;20722;-80
2020/12/15 00:53:36;;;;;;;131.65;53.03;;;;;;;-1.17;100.00;99306.91;2071411;28;20678;-80
2020/12/15 00:54:37;;;;;;;144.17;53.53;;;;;;;-1.17;100.00;99311.34;2087368;28;20620;-78
2020/12/15 00:55:38;;;;;;;133.93;53.50;;;;;;;-1.18;100.00;99321.03;2087599;28;20237;-80
2020/12/15 00:56:40;;;;;;;130.50;50.23;;;;;;;-1.19;100.00;99305.53;2088334;28;20229;-80
2020/12/15 00:57:41;;;;;;;126.47;50.80;;;;;;;-1.21;100.00;99303.13;2087451;28;20223;-80
2020/12/15 00:58:42;;;;;;;131.03;51.63;;;;;;;-1.22;100.00;99301.50;2088419;28;20280;-80
2020/12/15 00:59:43;;;;;;;140.38;51.78;;;;;;;-1.31;100.00;99300.16;2087651;28;20219;-80
2020/12/15 01:00:45;;;;;;;123.00;48.45;;;;;;;-1.27;100.00;99308.41;2087746;28;20221;-81
2020/12/15 01:01:46;;;;;;;139.55;50.80;;;;;;;-1.32;100.00;99300.38;2096324;28;20241;-80
2020/12/15 01:02:50;;;;;;;119.85;49.55;;;;;;;-1.33;100.00;99304.81;2096119;28;20683;-83
2020/12/15 01:03:52;;;;;;;123.03;47.22;;;;;;;-1.24;100.00;99307.97;2088045;28;20256;-80
2020/12/15 01:04:55;;;;;;;124.13;49.60;;;;;;;-1.25;100.00;99309.00;2071386;28;20224;-80
2020/12/15 01:05:57;;;;;;;112.53;47.08;;;;;;;-1.33;100.00;99298.78;2071640;28;20370;-82
2020/12/15 01:06:59;;;;;;;118.20;47.90;;;;;;;-1.30;100.00;99304.41;2088060;28;20226;-82
2020/12/15 01:08:00;;;;;;;119.63;47.78;;;;;;;-1.31;100.00;99294.94;2095992;28;20272;-80
2020/12/15 01:09:02;;;;;;;130.47;50.27;;;;;;;-1.25;100.00;99303.75;2080693;28;20223;-80
2020/12/15 01:10:04;;;;;;;118.05;46.60;;;;;;;-1.29;100.00;99308.63;2096108;28;20332;-80
2020/12/15 01:11:07;;;;;;;111.57;47.83;;;;;;;-1.31;100.00;99294.94;2087151;28;20715;-78
2020/12/15 01:12:10;;;;;;;106.85;45.55;;;;;;;-1.31;100.00;99299.38;2079850;28;20223;-80
2020/12/15 01:13:12;;;;;;;121.20;49.50;;;;;;;-1.35;100.00;99304.22;2080462;28;20277;-82
2020/12/15 01:14:13;;;;;;;118.80;46.75;;;;;;;-1.39;100.00;99300.44;2079724;28;20584;-80
2020/12/15 01:15:16;;;;;;;111.93;47.38;;;;;;;-1.45;100.00;99302.09;2071617;28;20224;-80
2020/12/15 01:16:18;;;;;;;114.30;47.80;;;;;;;-1.46;100.00;99307.53;2063993;28;20279;-80
2020/12/15 01:17:25;;;;;;;120.85;47.33;;;;;;;-1.51;100.00;99318.63;2070490;28;20235;-80
2020/12/15 01:18:26;;;;;;;114.20;47.03;;;;;;;-1.58;100.00;99301.38;2079466;28;20648;-82
2020/12/15 01:19:27;;;;;;;106.63;46.07;;;;;;;-1.61;100.00;99299.19;2088308;28;20313;-80
2020/12/15 01:20:28;;;;;;;113.10;47.80;;;;;;;-1.52;100.00;99313.59;2087632;28;20231;-80
2020/12/15 01:21:30;;;;;;;112.17;45.93;;;;;;;-1.58;100.00;99303.97;2087828;28;20665;-80
2020/12/15 01:22:34;;;;;;;119.55;47.33;;;;;;;-1.57;100.00;99298.53;2087568;28;20230;-80
2020/12/15 01:23:41;;;;;;;112.25;47.80;;;;;;;-1.51;100.00;99294.28;2063689;28;20781;-80
2020/12/15 01:24:42;;;;;;;121.97;51.08;;;;;;;-1.37;100.00;99303.66;2065852;28;20580;-80
2020/12/15 01:26:07;;;;;;;143.10;51.55;;;;;;;-1.36;100.00;99294.78;2073542;28;20245;-80
2020/12/15 01:27:09;;;;;;;141.05;51.30;;;;;;;-1.23;100.00;99306.94;2071782;28;20774;-80
2020/12/15 01:28:22;;;;;;;136.10;50.22;;;;;;;-1.30;100.00;99306.22;2064793;28;20255;-80
2020/12/15 01:29:23;;;;;;;139.32;51.17;;;;;;;-1.30;100.00;99301.78;2070784;28;20703;-79
2020/12/15 01:30:24;;;;;;;135.93;50.30;;;;;;;-1.27;100.00;99303.97;2079981;28;20227;-81
2020/12/15 01:31:45;;;;;;;168.63;51.38;;;;;;;-1.27;100.00;99305.78;2070591;28;20443;-80
2020/12/15 01:32:53;;;;;;;133.55;50.33;;;;;;;-1.25;100.00;99304.56;2069684;28;20228;-80
2020/12/15 01:34:05;;;;;;;139.73;49.60;;;;;;;-1.28;100.00;99288.50;2072815;28;20224;-80
2020/12/15 01:35:27;;;;;;;134.20;49.35;;;;;;;-1.36;100.00;99294.78;2089768;28;20229;-80
2020/12/15 01:36:30;;;;;;;128.48;48.95;;;;;;;-1.45;100.00;99294.25;2087563;28;20225;-80
2020/12/15 01:37:35;;;;;;;137.82;49.42;;;;;;;-1.46;100.00;99299.69;2079521;28;20262;-80
2020/12/15 01:38:36;;;;;;;139.27;50.13;;;;;;;-1.51;100.00;99291.66;2095392;28;20310;-78
2020/12/15 01:39:40;;;;;;;131.05;48.38;;;;;;;-1.60;100.00;99285.09;2087209;28;20227;-80
2020/12/15 01:40:51;;;;;;;137.93;49.08;;;;;;;-1.45;100.00;99303.91;2089009;28;20234;-81
2020/12/15 01:41:52;;;;;;;136.23;48.90;;;;;;;-1.48;100.00;99297.28;2087024;28;20293;-79
2020/12/15 01:42:54;;;;;;;134.70;49.92;;;;;;;-1.48;100.00;99288.59;2071338;28;20240;-80
2020/12/15 01:43:56;;;;;;;127.25;46.03;;;;;;;-1.44;100.00;99295.84;2087669;28;20218;-80
2020/12/15 01:45:00;;;;;;;115.88;44.53;;;;;;;-1.45;100.00;99288.22;2087180;28;20215;-80
2020/12/15 01:46:05;;;;;;;123.25;46.25;;;;;;;-1.42;100.00;99287.78;2088141;28;20218;-80
2020/12/15 01:47:10;;;;;;;111.55;45.22;;;;;;;-1.45;100.00;99299.47;2080228;28;20224;-79
2020/12/15 01:48:12;;;;;;;117.10;46.58;;;;;;;-1.38;100.00;99304.66;2079661;28;20654;-82
2020/12/15 01:49:21;;;;;;;100.80;44.50;;;;;;;-1.38;100.00;99298.63;2084116;28;20314;-80
2020/12/15 01:50:27;;;;;;;108.82;45.15;;;;;;;-1.45;100.00;99299.47;2063653;28;20260;-80
2020/12/15 01:51:30;;;;;;;106.27;42.20;;;;;;;-1.44;100.00;99301.06;2071761;28;20274;-80
2020/12/15 01:52:37;;;;;;;111.40;43.03;;;;;;;-1.44;100.00;99293.22;2070882;28;20234;-79
2020/12/15 01:53:38;;;;;;;106.72;44.00;;;;;;;-1.45;100.00;99293.44;2071450;28;20302;-79
2020/12/15 01:54:39;;;;;;;110.05;45.20;;;;;;;-1.51;100.00;99289.84;2064276;28;20263;-80
2020/12/15 01:55:41;;;;;;;123.83;45.63;;;;;;;-1.55;100.00;99285.25;2064936;28;20236;-80
2020/12/15 01:56:45;;;;;;;135.77;46.53;;;;;;;-1.53;100.00;99280.63;2065325;28;20303;-80
2020/12/15 01:57:53;;;;;;;111.35;44.38;;;;;;;-1.54;100.00;99282.44;2067365;28;20237;-80
2020/12/15 01:59:04;;;;;;;126.13;45.28;;;;;;;-1.60;100.00;99270.19;2073612;28;20261;-80
2020/12/15 02:00:06;;;;;;;124.45;45.40;;;;;;;-1.55;100.00;99267.75;2064924;28;20212;-80
2020/12/15 02:01:19;;;;;;;125.22;46.28;;;;;;;-1.49;100.00;99273.94;2074841;28;20215;-80
2020/12/15 02:02:22;;;;;;;124.57;46.70;;;;;;;-1.44;100.00;99272.28;2075251;28;20232;-78
2020/12/15 02:03:29;;;;;;;143.68;47.38;;;;;;;-1.46;100.00;99271.72;2072670;28;20376;-80
2020/12/15 02:04:49;;;;;;;127.95;46.80;;;;;;;-1.51;100.00;99268.91;2075032;28;20223;-80
2020/12/15 02:05:51;;;;;;;131.02;48.58;;;;;;;-1.56;100.00;99265.34;2072690;28;20297;-80
2020/12/15 02:06:53;;;;;;;133.30;49.37;;;;;;;-1.49;100.00;99274.72;2064422;28;20221;-80
2020/12/15 02:07:56;;;;;;;132.35;47.22;;;;;;;-1.54;100.00;99271.97;2065040;28;20315;-79
2020/12/15 02:08:58;;;;;;;134.90;48.23;;;;;;;-1.56;100.00;99270.59;2087834;28;20219;-80
2020/12/15 02:09:59;;;;;;;141.38;48.97;;;;;;;-1.61;100.00;99273.81;2089130;28;20959;-80
2020/12/15 02:11:27;;;;;;;129.07;45.92;;;;;;;-1.72;100.00;99264.03;2075378;28;20227;-80
2020/12/15 02:12:28;;;;;;;126.18;46.83;;;;;;;-1.56;100.00;99278.44;2081097;28;20634;-80
2020/12/15 02:13:29;;;;;;;150.40;46.33;;;;;;;-1.43;100.00;99283.56;2080957;28;20634;-80
2020/12/15 02:14:33;;;;;;;158.35;48.70;;;;;;;-1.48;100.00;99278.16;2081088;28;20298;-80
2020/12/15 02:15:34;;;;;;;176.67;48.50;;;;;;;-1.51;100.00;99284.63;2072714;28;20227;-80
2020/12/15 02:16:41;;;;;;;136.30;47.25;;;;;;;-1.54;100.00;99289.47;2080368;28;20678;-80
2020/12/15 02:17:45;;;;;;;148.40;46.17;;;;;;;-1.63;100.00;99283.69;2081003;28;20342;-80
2020/12/15 02:18:58;;;;;;;141.93;47.47;;;;;;;-1.67;100.00;99279.09;2090418;28;20245;-80
2020/12/15 02:20:07;;;;;;;133.57;46.28;;;;;;;-1.72;100.00;99270.06;2088477;28;20229;-80
2020/12/15 02:21:12;;;;;;;119.95;45.10;;;;;;;-1.63;100.00;99272.44;2066815;28;20233;-80
2020/12/15 02:22:34;;;;;;;134.82;45.95;;;;;;;-1.62;100.00;99276.66;2080813;28;20306;-81
2020/12/15 02:23:35;;;;;;;135.93;45.15;;;;;;;-1.63;100.00;99273.25;2081598;28;20223;-80
2020/12/15 02:24:49;;;;;;;121.75;48.15;;;;;;;-1.71;100.00;99276.91;2080565;28;20625;-80
2020/12/15 02:25:50;;;;;;;129.85;48.72;;;;;;;-1.68;100.00;99277.50;2089867;28;20223;-80
2020/12/15 02:26:51;;;;;;;149.40;50.37;;;;;;;-1.72;100.00;99271.88;2089138;28;20751;-80
2020/12/15 02:27:56;;;;;;;137.75;48.00;;;;;;;-1.74;100.00;99274.72;2073381;28;20238;-80
2020/12/15 02:28:57;;;;;;;138.63;49.83;;;;;;;-1.67;100.00;99286.94;2080736;28;20235;-80
2020/12/15 02:29:58;;;;;;;150.90;49.88;;;;;;;-1.78;100.00;99270.91;2081718;28;20677;-80
2020/12/15 02:30:59;;;;;;;156.17;49.20;;;;;;;-1.73;100.00;99284.16;2081453;28;20222;-80
2020/12/15 02:32:11;;;;;;;155.57;46.53;;;;;;;-1.62;100.00;99287.91;2089913;28;20246;-80
2020/12/15 02:33:17;;;;;;;152.77;46.85;;;;;;;-1.66;100.00;99285.91;2088760;28;20241;-80
2020/12/15 02:34:21;;;;;;;144.93;49.25;;;;;;;-1.80;100.00;99280.78;2089396;28;20227;-80
2020/12/15 02:35:21;;;;;;;146.93;48.17;;;;;;;-1.78;100.00;99291.81;2088569;28;20231;-78
2020/12/15 02:36:23;;;;;;;130.50;47.20;;;;;;;-1.81;100.00;99284.41;2080732;28;20702;-80
2020/12/15 02:37:39;;;;;;;139.80;45.45;;;;;;;-1.75;100.00;99291.41;2088477;28;20225;-80
2020/12/15 02:38:40;;;;;;;127.40;45.03;;;;;;;-1.73;100.00;99297.25;2097037;28;20284;-80
2020/12/15 02:39:41;;;;;;;129.23;45.27;;;;;;;-1.74;100.00;99282.56;2088904;28;20310;-80
2020/12/15 02:40:55;;;;;;;128.75;47.30;;;;;;;-1.72;100.00;99288.38;2083514;28;20751;-80
2020/12/15 02:42:11;;;;;;;124.45;43.28;;;;;;;-1.69;100.00;99281.13;2084974;28;20550;-80
2020/12/15 02:43:12;;;;;;;174.75;46.50;;;;;;;-1.68;100.00;99283.53;2080836;28;20242;-81
2020/12/15 02:44:21;;;;;;;191.10;45.33;;;;;;;-1.88;100.00;99273.19;2097249;28;20245;-81
2020/12/15 02:45:29;;;;;;;178.98;47.70;;;;;;;-1.78;100.00;99283.97;2087172;28;20246;-81
2020/12/15 02:46:31;;;;;;;140.30;44.92;;;;;;;-1.77;100.00;99288.19;2072758;28;20224;-80
2020/12/15 02:47:32;;;;;;;206.20;47.90;;;;;;;-1.78;100.00;99283.97;2072790;28;20758;-81
2020/12/15 02:48:34;;;;;;;129.20;45.47;;;;;;;-1.81;100.00;99273.94;2088807;28;20589;-81
2020/12/15 02:49:35;;;;;;;136.30;45.25;;;;;;;-1.79;100.00;99287.59;2089104;28;20791;-81
2020/12/15 02:50:38;;;;;;;126.47;44.67;;;;;;;-1.81;100.00;99287.03;2072216;28;20228;-80
2020/12/15 02:51:57;;;;;;;127.80;45.25;;;;;;;-1.77;100.00;99290.81;2078883;28;20231;-80
2020/12/15 02:53:15;;;;;;;106.57;42.08;;;;;;;-1.71;100.00;99284.75;2080136;28;20227;-81
2020/12/15 02:54:17;;;;;;;100.78;41.10;;;;;;;-1.64;100.00;99286.53;2072723;28;20228;-80
2020/12/15 02:55:19;;;;;;;121.25;43.28;;;;;;;-1.69;100.00;99287.16;2080592;28;20228;-81
2020/12/15 02:56:22;;;;;;;127.18;45.30;;;;;;;-1.74;100.00;99295.63;2080564;28;20231;-80
2020/12/15 02:57:23;;;;;;;128.65;44.42;;;;;;;-1.81;100.00;99292.25;2088761;28;20223;-80
2020/12/15 02:58:25;;;;;;;132.93;44.90;;;;;;;-1.82;100.00;99287.25;2088459;28;20227;-80
2020/12/15 02:59:29;;;;;;;152.10;47.30;;;;;;;-1.93;100.00;99286.06;2080990;28;20273;-80
2020/12/15 03:00:30;;;;;;;146.55;45.00;;;;;;;-2.03;100.00;99283.91;2080371;28;20713;-81
2020/12/15 03:01:31;;;;;;;172.70;48.33;;;;;;;-2.02;100.00;99284.72;2088798;28;20250;-81
2020/12/15 03:02:34;;;;;;;149.10;45.17;;;;;;;-2.05;100.00;99285.94;2088456;28;20250;-81
2020/12/15 03:03:37;;;;;;;150.07;46.38;;;;;;;-2.06;100.00;99280.91;2088720;28;20256;-81
2020/12/15 03:04:54;;;;;;;174.07;46.08;;;;;;;-1.97;100.00;99277.06;2085798;28;20637;-80
2020/12/15 03:05:55;;;;;;;115.72;46.03;;;;;;;-1.91;100.00;99281.44;2088210;28;20222;-81
2020/12/15 03:06:56;;;;;;;157.10;46.43;;;;;;;-1.92;100.00;99282.44;2088476;28;20233;-80
2020/12/15 03:08:14;;;;;;;200.40;48.40;;;;;;;-1.97;100.00;99263.19;2083409;28;20302;-80
2020/12/15 03:09:16;;;;;;;192.45;48.30;;;;;;;-1.84;100.00;99278.78;2080409;28;20298;-81
2020/12/15 03:10:24;;;;;;;184.75;45.53;;;;;;;-1.84;100.00;99269.13;2065131;28;20228;-80
2020/12/15 03:11:26;;;;;;;239.67;50.87;;;;;;;-1.88;100.00;99272.38;2064053;28;20229;-81
2020/12/15 03:12:34;;;;;;;147.02;45.40;;;;;;;-1.85;100.00;99272.75;2072237;28;20224;-81
2020/12/15 03:13:36;;;;;;;155.57;46.15;;;;;;;-1.82;100.00;99267.13;2064339;28;20762;-81
2020/12/15 03:14:37;;;;;;;119.55;42.42;;;;;;;-1.74;100.00;99272.09;2072005;28;20247;-80
2020/12/15 03:15:41;;;;;;;136.77;43.25;;;;;;;-1.68;100.00;99277.50;2072391;28;20625;-81
2020/12/15 03:16:47;;;;;;;113.00;42.63;;;;;;;-1.69;100.00;99273.28;2072085;28;20670;-81
2020/12/15 03:17:50;;;;;;;116.20;43.25;;;;;;;-1.81;100.00;99262.69;2064450;28;20244;-80
2020/12/15 03:18:51;;;;;;;130.25;42.45;;;;;;;-1.79;100.00;99274.53;2064291;28;20656;-81
2020/12/15 03:19:54;;;;;;;131.38;43.72;;;;;;;-1.94;100.00;99267.97;2068019;28;20314;-81
2020/12/15 03:20:54;;;;;;;118.00;44.15;;;;;;;-1.97;100.00;99279.66;2068085;28;20320;-80
2020/12/15 03:21:57;;;;;;;129.02;44.88;;;;;;;-1.92;100.00;99277.22;2065502;28;20238;-81
2020/12/15 03:22:58;;;;;;;156.23;46.30;;;;;;;-1.94;100.00;99281.06;2064361;28;20236;-81
2020/12/15 03:24:04;;;;;;;141.77;46.13;;;;;;;-2.01;100.00;99268.81;2072357;28;20219;-81
2020/12/15 03:25:05;;;;;;;134.38;45.70;;;;;;;-1.90;100.00;99274.41;2072121;28;20715;-80
2020/12/15 03:26:14;;;;;;;106.93;44.22;;;;;;;-1.96;100.00;99278.66;2071927;28;20220;-81
2020/12/15 03:27:15;;;;;;;128.55;45.83;;;;;;;-2.06;100.00;99267.84;2071992;28;20216;-81
2020/12/15 03:28:16;;;;;;;125.57;43.28;;;;;;;-2.06;100.00;99270.47;2074153;28;20698;-81
2020/12/15 03:29:17;;;;;;;133.60;45.80;;;;;;;-2.09;100.00;99270.88;2080412;28;20223;-80
2020/12/15 03:30:21;;;;;;;118.07;43.33;;;;;;;-2.08;100.00;99262.03;2080183;28;20234;-81
2020/12/15 03:31:22;;;;;;;138.95;45.35;;;;;;;-1.96;100.00;99283.88;2070005;28;20603;-80
2020/12/15 03:32:23;;;;;;;172.43;47.30;;;;;;;-2.04;100.00;99279.69;2071865;28;20252;-81
2020/12/15 03:33:26;;;;;;;115.68;44.55;;;;;;;-2.04;100.00;99268.44;2072508;28;20322;-81
2020/12/15 03:34:30;;;;;;;157.93;46.22;;;;;;;-2.07;100.00;99264.44;2072585;28;20228;-80
2020/12/15 03:35:32;;;;;;;124.07;46.15;;;;;;;-2.02;100.00;99267.22;2088540;28;20307;-81
2020/12/15 03:36:36;;;;;;;134.63;45.97;;;;;;;-1.89;100.00;99271.59;2088331;28;20273;-81
2020/12/15 03:37:37;;;;;;;141.70;47.55;;;;;;;-2.07;100.00;99242.72;2079860;28;20219;-79
2020/12/15 03:38:38;;;;;;;128.87;45.00;;;;;;;-2.08;100.00;99252.38;2080436;28;20250;-81
2020/12/15 03:39:40;;;;;;;126.10;46.45;;;;;;;-2.04;100.00;99253.56;2080159;28;20228;-80
2020/12/15 03:40:51;;;;;;;126.57;45.25;;;;;;;-2.00;100.00;99257.38;2073403;28;20628;-81
2020/12/15 03:42:06;;;;;;;134.57;45.53;;;;;;;-1.97;100.00;99263.97;2073697;28;20241;-81
2020/12/15 03:43:07;;;;;;;133.38;44.42;;;;;;;-2.01;100.00;99260.16;2088134;28;20625;-80
2020/12/15 03:44:24;;;;;;;129.38;48.33;;;;;;;-2.08;100.00;99265.44;2085876;28;20226;-81
2020/12/15 03:45:52;;;;;;;139.07;46.67;;;;;;;-2.13;100.00;99246.16;2072983;28;20231;-81
2020/12/15 03:46:53;;;;;;;137.20;46.63;;;;;;;-2.02;100.00;99254.13;2090117;28;20221;-81
2020/12/15 03:47:54;;;;;;;114.00;47.57;;;;;;;-1.91;100.00;99273.63;2080120;28;20314;-80
2020/12/15 03:48:55;;;;;;;130.75;44.65;;;;;;;-1.98;100.00;99267.59;2063882;28;20935;-80
2020/12/15 03:49:56;;;;;;;126.88;44.60;;;;;;;-1.87;100.00;99263.53;2064140;28;20343;-80
2020/12/15 03:50:58;;;;;;;153.30;45.30;;;;;;;-1.92;100.00;99253.69;2071837;28;20273;-81
2020/12/15 03:52:16;;;;;;;124.82;43.55;;;;;;;-1.89;100.00;99261.13;2071855;28;20248;-80
2020/12/15 03:53:41;;;;;;;133.15;45.05;;;;;;;-2.02;100.00;99250.72;2071355;28;20255;-80
2020/12/15 03:54:43;;;;;;;192.02;45.55;;;;;;;-1.97;100.00;99268.41;2063918;28;20316;-80
2020/12/15 03:55:53;;;;;;;214.40;47.25;;;;;;;-1.99;100.00;99263.41;2071853;28;20227;-80
2020/12/15 03:56:54;;;;;;;147.63;45.28;;;;;;;-2.12;100.00;99247.75;2071865;28;20351;-81
2020/12/15 03:57:56;;;;;;;147.32;44.45;;;;;;;-2.14;100.00;99245.38;2063816;28;20706;-80
2020/12/15 03:59:20;;;;;;;123.70;44.78;;;;;;;-2.06;100.00;99257.41;2072236;28;20571;-81
2020/12/15 04:00:22;;;;;;;115.95;43.97;;;;;;;-2.06;100.00;99260.00;2076318;28;20339;-81
2020/12/15 04:01:37;;;;;;;116.88;44.47;;;;;;;-1.95;100.00;99264.56;2069266;28;20231;-80
2020/12/15 04:02:40;;;;;;;127.35;43.63;;;;;;;-1.93;100.00;99251.28;2064032;28;20232;-81
2020/12/15 04:03:53;;;;;;;129.55;43.90;;;;;;;-1.97;100.00;99263.19;2065242;28;20620;-80
2020/12/15 04:05:02;;;;;;;141.20;44.72;;;;;;;-1.96;100.00;99262.97;2064992;28;20743;-81
2020/12/15 04:06:03;;;;;;;123.45;42.28;;;;;;;-1.96;100.00;99257.75;2063794;28;20224;-81
2020/12/15 04:07:08;;;;;;;155.98;45.65;;;;;;;-1.99;100.00;99260.78;2063879;28;20248;-80
2020/12/15 04:08:15;;;;;;;136.82;45.22;;;;;;;-2.09;100.00;99255.19;2072187;28;20230;-81
2020/12/15 04:09:20;;;;;;;128.85;43.72;;;;;;;-2.07;100.00;99253.19;2071858;28;20220;-81
2020/12/15 04:10:21;;;;;;;226.18;50.45;;;;;;;-2.14;100.00;99253.22;2072223;28;20239;-81
2020/12/15 04:11:23;;;;;;;128.52;46.78;;;;;;;-2.15;100.00;99250.81;2063303;28;20817;-81
2020/12/15 04:12:26;;;;;;;218.02;50.03;;;;;;;-2.13;100.00;99251.41;2064196;28;20237;-81
2020/12/15 04:13:28;;;;;;;143.87;49.23;;;;;;;-2.24;100.00;99241.59;2064138;28;20224;-80
2020/12/15 04:14:31;;;;;;;141.48;46.78;;;;;;;-2.15;100.00;99256.03;2064233;28;20262;-80
2020/12/15 04:15:33;;;;;;;149.27;48.57;;;;;;;-2.15;100.00;99258.66;2064043;28;20741;-81
2020/12/15 04:16:37;;;;;;;154.38;48.28;;;;;;;-2.13;100.00;99256.63;2063497;28;20579;-80
2020/12/15 04:17:43;;;;;;;134.88;45.65;;;;;;;-2.18;100.00;99249.38;2063795;28;20606;-81
2020/12/15 04:18:44;;;;;;;146.88;47.28;;;;;;;-2.02;100.00;99255.94;2071965;28;20302;-81
2020/12/15 04:19:50;;;;;;;148.13;47.30;;;;;;;-2.04;100.00;99252.75;2064496;28;20225;-81
2020/12/15 04:20:51;;;;;;;129.32;47.38;;;;;;;-2.02;100.00;99255.94;2071693;28;20224;-81
2020/12/15 04:21:53;;;;;;;142.10;46.72;;;;;;;-2.09;100.00;99260.41;2063431;28;20233;-81
2020/12/15 04:23:03;;;;;;;143.38;48.53;;;;;;;-2.16;100.00;99254.44;2064866;28;20224;-81
2020/12/15 04:24:09;;;;;;;187.32;49.53;;;;;;;-2.18;100.00;99262.47;2065962;28;20228;-81
2020/12/15 04:25:17;;;;;;;137.07;46.55;;;;;;;-2.19;100.00;99260.06;2081489;28;20219;-81
2020/12/15 04:26:21;;;;;;;167.88;49.25;;;;;;;-2.21;100.00;99256.84;2079768;28;20231;-81
2020/12/15 04:27:27;;;;;;;129.52;46.47;;;;;;;-2.32;100.00;99240.03;2063778;28;20240;-80
2020/12/15 04:28:28;;;;;;;140.05;48.10;;;;;;;-2.19;100.00;99258.25;2063608;28;20709;-81
2020/12/15 04:29:29;;;;;;;142.65;46.28;;;;;;;-2.09;100.00;99261.22;2071573;28;20231;-81
2020/12/15 04:30:38;;;;;;;136.20;48.50;;;;;;;-2.11;100.00;99259.81;2071521;28;20239;-80
2020/12/15 04:31:39;;;;;;;171.90;47.85;;;;;;;-2.16;100.00;99254.44;2071579;28;20235;-81
2020/12/15 04:32:40;;;;;;;145.03;47.37;;;;;;;-2.18;100.00;99257.22;2065549;28;20249;-81
2020/12/15 04:33:59;;;;;;;133.90;47.67;;;;;;;-2.22;100.00;99255.25;2065611;28;20225;-81
2020/12/15 04:35:01;;;;;;;131.23;45.63;;;;;;;-2.22;100.00;99266.50;2063462;28;20225;-81
2020/12/15 04:36:04;;;;;;;137.38;47.88;;;;;;;-2.25;100.00;99260.91;2071945;28;20224;-81
2020/12/15 04:37:06;;;;;;;122.30;46.35;;;;;;;-2.25;100.00;99271.38;2071516;28;20590;-81
2020/12/15 04:38:18;;;;;;;143.65;46.75;;;;;;;-2.20;100.00;99274.13;2071886;28;20230;-81
2020/12/15 04:39:19;;;;;;;126.60;46.40;;;;;;;-2.25;100.00;99272.16;2071622;28;20220;-81
2020/12/15 04:40:22;;;;;;;119.00;46.20;;;;;;;-2.30;100.00;99275.38;2079503;28;20235;-80
2020/12/15 04:41:25;;;;;;;113.95;45.20;;;;;;;-2.23;100.00;99279.78;2071718;28;20247;-81
2020/12/15 04:42:27;;;;;;;125.30;45.35;;;;;;;-2.24;100.00;99283.41;2072972;28;20235;-81
2020/12/15 04:43:30;;;;;;;118.72;45.10;;;;;;;-2.29;100.00;99282.22;2063582;28;20232;-81
2020/12/15 04:44:32;;;;;;;185.80;45.97;;;;;;;-2.34;100.00;99268.19;2071644;28;20227;-81
2020/12/15 04:45:35;;;;;;;175.52;45.75;;;;;;;-2.23;100.00;99275.38;2071544;28;20552;-81
2020/12/15 04:46:54;;;;;;;164.43;47.65;;;;;;;-2.23;100.00;99271.94;2063493;28;20255;-79
2020/12/15 04:48:04;;;;;;;141.48;42.47;;;;;;;-2.17;100.00;99284.16;2065379;28;20256;-81
2020/12/15 04:49:28;;;;;;;120.45;43.17;;;;;;;-2.18;100.00;99274.72;2071746;28;20234;-80